Crystal Lake, IL (60012)

5:08 PM CST on February 10, 2016 (GMT -0600)
Nunda Township Bay Road Farm | | Change Station
CLOSE
Current Station
Personal Weather Station
Location: Crystal Lake, IL
Elevation: 830 ft
Nearby Weather Stations

Elev 830 ft 42.28 °N, 88.30 °W | Updated 5 seconds ago

Mostly Cloudy
Mostly Cloudy
14.4 °F
Feels Like 14 °F
N
0.4
Wind Variable Wind from North
Gusts 2.5 mph

Today
High -- | Low -- °F
--% Chance of Precip.
Yesterday
High -- | Low -- °F
Precip. -- in
Pressure 30.12 in
Visibility 10.0 miles
Clouds Overcast 3700 ft
Windchill 14 °F
Dew Point -4 °F
Humidity 42%
Rainfall 0.00 in
Snow Depth Not available.
6:56 AM 5:18 PM
Waxing Crescent, 7% visible
METAR KPWK 102252Z 30009KT 10SM OVC037 M09/M17 A3007 RMK AO2 SLP198 T10941172
Pressure 30.12 in
Visibility 10.0 miles
Clouds Overcast 3700 ft
Windchill 14 °F
Dew Point -4 °F
Humidity 42%
Rainfall 0.00 in
Snow Depth Not available.
6:56 AM 5:18 PM
Waxing Crescent, 7% visible
METAR KPWK 102252Z 30009KT 10SM OVC037 M09/M17 A3007 RMK AO2 SLP198 T10941172

10-Day Weather Forecast

Almanac

Astronomy

Feb. 10, 2016 Rise Set
Actual Time
Civil Twilight
Nautical Twilight
Astronomical Twilight
Moon
Length of Visible Light
Length of Day
Tomorrow will be .
, % of the Moon is Illuminated

Today's Extremes

State Highs State Lows

Community

WunderPhotos

Upload Photos

1,891,933 photos uploaded!

WunderBlog® & News

Nearby

Air Quality

  Air Quality AQ Index Pollutant
Not available.

Snow Depth

Station Depth Elevation

Earthquake Activity

City Distance Mag. Time & Date
Minimum magnitude displayed is 2.5.

Coastal Water Temperatures

Place Temperature

Stations

Nearby Weather Stations

Station Location Temp. Windchill Dew Point Humidity Wind Precip. Elev Updated Type
                   

Watches & Warnings

There are currently no watches in effect.